EmailTwitter


Observations de surface / Québec / CYHU (71371)

Régions: Québec | Canada | États-Unis | Europe | France | UK | Ailleurs
Station
Affichage
Infos & localisation pour CYHU (71371) | Aide pour décoder les METARs

Observations prises le 2020-02-25 à 09H00 UTC à MONTREAL/ST HUBE, QB (CYHU)

Etat du ciel: partiellement nuageux.

Obstacle(s) à la visibilité: brume.

Température: -3.0 Celsius

Point de rosée: -4.0 Celsius

Humidité relative: 93%

Facteur vent: -5.

Vents: Nord à 6 km/h ou 3 noeuds.

Pression au niveau moyen de la mer: 101.34 kilopascals.

Calage altimétrique: 101.32 kilopascals ou 29.92 pouces de mercure.

Visibilité horizontale: 3.00 milles terrestres ou 4.80 kilomètres.

Hauteur du plafond: 4877 mètres ( 16000 pieds ).

Observation METAR:

CYHU 250900Z AUTO 01003KT 3SM BR BKN160 M03/M04 A2992 RMK SLP134=